sensor_id;sensor_type;location;lat;lon;timestamp;P1;durP1;ratioP1;P2;durP2;ratioP2
17636;SDS011;8937;51.236;6.794;2023-03-11T00:07:48;2.87;;;1.83;;
17636;SDS011;8937;51.236;6.794;2023-03-11T00:16:11;4.13;;;1.67;;
17636;SDS011;8937;51.236;6.794;2023-03-11T00:24:32;2.83;;;1.53;;
17636;SDS011;8937;51.236;6.794;2023-03-11T00:32:56;4.40;;;1.60;;
17636;SDS011;8937;51.236;6.794;2023-03-11T00:41:17;5.50;;;1.83;;
17636;SDS011;8937;51.236;6.794;2023-03-11T00:49:40;1.40;;;1.30;;
17636;SDS011;8937;51.236;6.794;2023-03-11T00:58:05;3.27;;;1.17;;
17636;SDS011;8937;51.236;6.794;2023-03-11T01:06:28;2.53;;;1.40;;
17636;SDS011;8937;51.236;6.794;2023-03-11T01:14:49;5.33;;;1.43;;
17636;SDS011;8937;51.236;6.794;2023-03-11T01:23:13;1.60;;;1.50;;
17636;SDS011;8937;51.236;6.794;2023-03-11T01:31:35;1.50;;;1.40;;
17636;SDS011;8937;51.236;6.794;2023-03-11T01:39:57;2.20;;;1.30;;
17636;SDS011;8937;51.236;6.794;2023-03-11T01:48:22;1.80;;;1.33;;
17636;SDS011;8937;51.236;6.794;2023-03-11T01:56:45;3.10;;;1.37;;
17636;SDS011;8937;51.236;6.794;2023-03-11T02:05:11;5.13;;;1.70;;
17636;SDS011;8937;51.236;6.794;2023-03-11T02:13:34;1.00;;;1.00;;
17636;SDS011;8937;51.236;6.794;2023-03-11T02:21:56;2.37;;;1.40;;
17636;SDS011;8937;51.236;6.794;2023-03-11T02:30:18;1.50;;;1.17;;
17636;SDS011;8937;51.236;6.794;2023-03-11T02:38:40;1.30;;;1.20;;
17636;SDS011;8937;51.236;6.794;2023-03-11T02:47:03;2.30;;;1.30;;
17636;SDS011;8937;51.236;6.794;2023-03-11T02:55:24;2.10;;;1.20;;
17636;SDS011;8937;51.236;6.794;2023-03-11T03:03:54;1.47;;;1.37;;
17636;SDS011;8937;51.236;6.794;2023-03-11T03:12:16;1.40;;;1.30;;
17636;SDS011;8937;51.236;6.794;2023-03-11T03:20:38;1.53;;;1.13;;
17636;SDS011;8937;51.236;6.794;2023-03-11T03:29:00;3.07;;;1.40;;
17636;SDS011;8937;51.236;6.794;2023-03-11T03:37:22;3.33;;;1.40;;
17636;SDS011;8937;51.236;6.794;2023-03-11T03:45:44;4.83;;;1.30;;
17636;SDS011;8937;51.236;6.794;2023-03-11T03:54:06;2.60;;;1.30;;
17636;SDS011;8937;51.236;6.794;2023-03-11T04:02:28;3.73;;;1.40;;
17636;SDS011;8937;51.236;6.794;2023-03-11T04:10:56;1.10;;;1.07;;
17636;SDS011;8937;51.236;6.794;2023-03-11T04:19:17;2.30;;;1.33;;
17636;SDS011;8937;51.236;6.794;2023-03-11T04:27:40;2.10;;;1.43;;
17636;SDS011;8937;51.236;6.794;2023-03-11T04:36:05;1.87;;;1.10;;
17636;SDS011;8937;51.236;6.794;2023-03-11T04:44:29;3.00;;;1.10;;
17636;SDS011;8937;51.236;6.794;2023-03-11T04:52:50;3.13;;;1.40;;
17636;SDS011;8937;51.236;6.794;2023-03-11T05:01:13;1.20;;;1.10;;
17636;SDS011;8937;51.236;6.794;2023-03-11T05:09:34;2.57;;;1.50;;
17636;SDS011;8937;51.236;6.794;2023-03-11T05:17:57;1.13;;;1.03;;
17636;SDS011;8937;51.236;6.794;2023-03-11T05:26:19;1.20;;;1.17;;
17636;SDS011;8937;51.236;6.794;2023-03-11T05:34:42;2.07;;;1.20;;
17636;SDS011;8937;51.236;6.794;2023-03-11T05:43:03;1.10;;;1.10;;
17636;SDS011;8937;51.236;6.794;2023-03-11T05:51:26;1.07;;;0.97;;
17636;SDS011;8937;51.236;6.794;2023-03-11T05:59:47;1.27;;;1.27;;
17636;SDS011;8937;51.236;6.794;2023-03-11T06:08:10;1.37;;;1.20;;
17636;SDS011;8937;51.236;6.794;2023-03-11T06:16:31;1.00;;;1.00;;
17636;SDS011;8937;51.236;6.794;2023-03-11T06:24:55;1.50;;;1.17;;
17636;SDS011;8937;51.236;6.794;2023-03-11T06:33:16;2.53;;;1.10;;
17636;SDS011;8937;51.236;6.794;2023-03-11T06:41:39;1.30;;;1.20;;
17636;SDS011;8937;51.236;6.794;2023-03-11T06:50:00;1.70;;;1.10;;
17636;SDS011;8937;51.236;6.794;2023-03-11T06:58:26;3.03;;;1.37;;
17636;SDS011;8937;51.236;6.794;2023-03-11T07:06:48;1.57;;;1.47;;
17636;SDS011;8937;51.236;6.794;2023-03-11T07:15:11;1.50;;;1.40;;
17636;SDS011;8937;51.236;6.794;2023-03-11T07:23:33;1.50;;;1.40;;
17636;SDS011;8937;51.236;6.794;2023-03-11T07:31:56;1.33;;;1.23;;
17636;SDS011;8937;51.236;6.794;2023-03-11T07:40:17;1.47;;;1.37;;
17636;SDS011;8937;51.236;6.794;2023-03-11T07:48:40;2.37;;;1.40;;
17636;SDS011;8937;51.236;6.794;2023-03-11T07:57:01;4.23;;;2.00;;
17636;SDS011;8937;51.236;6.794;2023-03-11T08:05:24;1.83;;;1.40;;
17636;SDS011;8937;51.236;6.794;2023-03-11T08:13:46;2.00;;;1.13;;
17636;SDS011;8937;51.236;6.794;2023-03-11T08:22:09;1.90;;;1.43;;
17636;SDS011;8937;51.236;6.794;2023-03-11T08:30:30;1.30;;;1.20;;
17636;SDS011;8937;51.236;6.794;2023-03-11T08:38:53;1.17;;;1.07;;
17636;SDS011;8937;51.236;6.794;2023-03-11T08:47:14;1.27;;;1.13;;
17636;SDS011;8937;51.236;6.794;2023-03-11T08:55:38;3.70;;;1.33;;
17636;SDS011;8937;51.236;6.794;2023-03-11T09:03:59;3.13;;;1.10;;
17636;SDS011;8937;51.236;6.794;2023-03-11T09:12:22;1.30;;;1.20;;
17636;SDS011;8937;51.236;6.794;2023-03-11T09:20:43;2.73;;;1.10;;
17636;SDS011;8937;51.236;6.794;2023-03-11T09:29:06;1.13;;;1.10;;
17636;SDS011;8937;51.236;6.794;2023-03-11T09:37:28;2.93;;;1.60;;
17636;SDS011;8937;51.236;6.794;2023-03-11T09:45:52;3.40;;;1.33;;
17636;SDS011;8937;51.236;6.794;2023-03-11T09:54:15;1.77;;;1.47;;
17636;SDS011;8937;51.236;6.794;2023-03-11T10:02:38;12.50;;;1.90;;
17636;SDS011;8937;51.236;6.794;2023-03-11T10:11:03;1.80;;;1.40;;
17636;SDS011;8937;51.236;6.794;2023-03-11T10:19:31;2.70;;;2.20;;
17636;SDS011;8937;51.236;6.794;2023-03-11T10:27:59;1.17;;;1.17;;
17636;SDS011;8937;51.236;6.794;2023-03-11T10:36:25;4.33;;;1.83;;
17636;SDS011;8937;51.236;6.794;2023-03-11T10:44:48;2.90;;;1.70;;
17636;SDS011;8937;51.236;6.794;2023-03-11T10:53:12;2.40;;;1.30;;
17636;SDS011;8937;51.236;6.794;2023-03-11T11:01:35;2.83;;;1.60;;
17636;SDS011;8937;51.236;6.794;2023-03-11T11:10:12;1.97;;;1.57;;
17636;SDS011;8937;51.236;6.794;2023-03-11T11:18:34;2.67;;;1.37;;
17636;SDS011;8937;51.236;6.794;2023-03-11T11:27:04;1.20;;;1.20;;
17636;SDS011;8937;51.236;6.794;2023-03-11T11:35:26;3.33;;;1.80;;
17636;SDS011;8937;51.236;6.794;2023-03-11T11:43:49;1.20;;;1.20;;
17636;SDS011;8937;51.236;6.794;2023-03-11T11:52:13;2.13;;;1.30;;
17636;SDS011;8937;51.236;6.794;2023-03-11T12:00:38;2.60;;;1.20;;
17636;SDS011;8937;51.236;6.794;2023-03-11T12:09:02;1.53;;;1.17;;
17636;SDS011;8937;51.236;6.794;2023-03-11T12:17:29;2.90;;;1.30;;
17636;SDS011;8937;51.236;6.794;2023-03-11T12:25:57;2.10;;;1.30;;
17636;SDS011;8937;51.236;6.794;2023-03-11T12:34:23;1.00;;;1.00;;
17636;SDS011;8937;51.236;6.794;2023-03-11T12:42:44;1.87;;;0.90;;
17636;SDS011;8937;51.236;6.794;2023-03-11T12:51:07;1.53;;;1.00;;
17636;SDS011;8937;51.236;6.794;2023-03-11T12:59:58;1.20;;;0.83;;
17636;SDS011;8937;51.236;6.794;2023-03-11T13:08:28;3.33;;;1.37;;
17636;SDS011;8937;51.236;6.794;2023-03-11T13:16:53;1.23;;;1.00;;
17636;SDS011;8937;51.236;6.794;2023-03-11T13:25:26;1.47;;;1.37;;
17636;SDS011;8937;51.236;6.794;2023-03-11T13:33:48;1.40;;;1.30;;
17636;SDS011;8937;51.236;6.794;2023-03-11T13:42:16;2.37;;;1.80;;
17636;SDS011;8937;51.236;6.794;2023-03-11T13:50:40;2.70;;;1.50;;
17636;SDS011;8937;51.236;6.794;2023-03-11T13:59:19;1.87;;;1.53;;
17636;SDS011;8937;51.236;6.794;2023-03-11T14:07:42;2.70;;;1.93;;
17636;SDS011;8937;51.236;6.794;2023-03-11T14:16:06;2.60;;;1.30;;
17636;SDS011;8937;51.236;6.794;2023-03-11T14:24:28;1.37;;;1.27;;
17636;SDS011;8937;51.236;6.794;2023-03-11T14:33:01;2.20;;;1.40;;
17636;SDS011;8937;51.236;6.794;2023-03-11T14:41:24;0.90;;;0.90;;
17636;SDS011;8937;51.236;6.794;2023-03-11T14:49:47;2.67;;;1.20;;
17636;SDS011;8937;51.236;6.794;2023-03-11T14:58:10;1.00;;;1.00;;
17636;SDS011;8937;51.236;6.794;2023-03-11T15:06:36;1.10;;;0.90;;
17636;SDS011;8937;51.236;6.794;2023-03-11T15:14:58;2.80;;;1.27;;
17636;SDS011;8937;51.236;6.794;2023-03-11T15:23:21;1.90;;;1.10;;
17636;SDS011;8937;51.236;6.794;2023-03-11T15:31:43;1.20;;;1.03;;
17636;SDS011;8937;51.236;6.794;2023-03-11T15:40:11;1.83;;;1.40;;
17636;SDS011;8937;51.236;6.794;2023-03-11T15:48:33;1.37;;;1.13;;
17636;SDS011;8937;51.236;6.794;2023-03-11T15:56:56;1.57;;;1.10;;
17636;SDS011;8937;51.236;6.794;2023-03-11T16:05:20;0.97;;;0.97;;
17636;SDS011;8937;51.236;6.794;2023-03-11T16:13:43;1.20;;;1.10;;
17636;SDS011;8937;51.236;6.794;2023-03-11T16:22:04;1.77;;;0.93;;
17636;SDS011;8937;51.236;6.794;2023-03-11T16:30:30;1.17;;;1.07;;
17636;SDS011;8937;51.236;6.794;2023-03-11T16:38:51;3.43;;;1.00;;
17636;SDS011;8937;51.236;6.794;2023-03-11T16:47:14;0.80;;;0.80;;
17636;SDS011;8937;51.236;6.794;2023-03-11T16:55:35;1.17;;;1.00;;
17636;SDS011;8937;51.236;6.794;2023-03-11T17:03:58;0.90;;;0.90;;
17636;SDS011;8937;51.236;6.794;2023-03-11T17:12:19;3.20;;;1.00;;
17636;SDS011;8937;51.236;6.794;2023-03-11T17:20:43;2.20;;;0.90;;
17636;SDS011;8937;51.236;6.794;2023-03-11T17:29:04;2.80;;;1.20;;
17636;SDS011;8937;51.236;6.794;2023-03-11T17:37:27;1.40;;;1.00;;
17636;SDS011;8937;51.236;6.794;2023-03-11T17:45:49;1.23;;;1.17;;
17636;SDS011;8937;51.236;6.794;2023-03-11T17:54:11;2.87;;;1.17;;
17636;SDS011;8937;51.236;6.794;2023-03-11T18:02:33;1.50;;;1.40;;
17636;SDS011;8937;51.236;6.794;2023-03-11T18:10:57;5.50;;;1.80;;
17636;SDS011;8937;51.236;6.794;2023-03-11T18:19:19;1.60;;;1.47;;
17636;SDS011;8937;51.236;6.794;2023-03-11T18:27:42;1.57;;;1.23;;
17636;SDS011;8937;51.236;6.794;2023-03-11T18:36:13;1.60;;;1.50;;
17636;SDS011;8937;51.236;6.794;2023-03-11T18:44:36;3.83;;;1.80;;
17636;SDS011;8937;51.236;6.794;2023-03-11T18:52:57;1.80;;;1.70;;
17636;SDS011;8937;51.236;6.794;2023-03-11T19:01:20;2.17;;;1.60;;
17636;SDS011;8937;51.236;6.794;2023-03-11T19:09:41;1.63;;;1.53;;
17636;SDS011;8937;51.236;6.794;2023-03-11T19:18:04;1.70;;;1.60;;
17636;SDS011;8937;51.236;6.794;2023-03-11T19:26:26;3.00;;;2.20;;
17636;SDS011;8937;51.236;6.794;2023-03-11T19:34:49;2.93;;;1.87;;
17636;SDS011;8937;51.236;6.794;2023-03-11T19:43:10;3.17;;;2.30;;
17636;SDS011;8937;51.236;6.794;2023-03-11T19:51:35;3.87;;;2.10;;
17636;SDS011;8937;51.236;6.794;2023-03-11T19:59:56;3.10;;;2.23;;
17636;SDS011;8937;51.236;6.794;2023-03-11T20:08:19;4.80;;;2.33;;
17636;SDS011;8937;51.236;6.794;2023-03-11T20:16:41;3.70;;;2.80;;
17636;SDS011;8937;51.236;6.794;2023-03-11T20:25:04;5.63;;;2.60;;
17636;SDS011;8937;51.236;6.794;2023-03-11T20:33:26;7.73;;;3.10;;
17636;SDS011;8937;51.236;6.794;2023-03-11T20:41:48;3.07;;;2.30;;
17636;SDS011;8937;51.236;6.794;2023-03-11T20:50:10;4.63;;;2.60;;
17636;SDS011;8937;51.236;6.794;2023-03-11T20:58:33;4.00;;;1.97;;
17636;SDS011;8937;51.236;6.794;2023-03-11T21:06:55;5.67;;;2.43;;
17636;SDS011;8937;51.236;6.794;2023-03-11T21:15:18;5.87;;;2.93;;
17636;SDS011;8937;51.236;6.794;2023-03-11T21:23:40;5.47;;;2.43;;
17636;SDS011;8937;51.236;6.794;2023-03-11T21:32:04;5.17;;;2.60;;
17636;SDS011;8937;51.236;6.794;2023-03-11T21:40:26;3.53;;;2.70;;
17636;SDS011;8937;51.236;6.794;2023-03-11T21:48:51;2.67;;;2.40;;
17636;SDS011;8937;51.236;6.794;2023-03-11T21:57:13;3.27;;;2.80;;
17636;SDS011;8937;51.236;6.794;2023-03-11T22:05:36;4.57;;;3.20;;
17636;SDS011;8937;51.236;6.794;2023-03-11T22:13:57;3.33;;;2.93;;
17636;SDS011;8937;51.236;6.794;2023-03-11T22:22:21;4.27;;;3.17;;
17636;SDS011;8937;51.236;6.794;2023-03-11T22:30:42;4.80;;;3.20;;
17636;SDS011;8937;51.236;6.794;2023-03-11T22:39:05;2.93;;;2.67;;
17636;SDS011;8937;51.236;6.794;2023-03-11T22:47:26;3.20;;;2.90;;
17636;SDS011;8937;51.236;6.794;2023-03-11T22:55:49;3.63;;;2.83;;
17636;SDS011;8937;51.236;6.794;2023-03-11T23:04:11;3.47;;;2.53;;
17636;SDS011;8937;51.236;6.794;2023-03-11T23:12:34;3.07;;;2.73;;
17636;SDS011;8937;51.236;6.794;2023-03-11T23:20:56;4.23;;;2.97;;
17636;SDS011;8937;51.236;6.794;2023-03-11T23:29:19;5.67;;;3.17;;
17636;SDS011;8937;51.236;6.794;2023-03-11T23:37:40;3.57;;;2.77;;
17636;SDS011;8937;51.236;6.794;2023-03-11T23:46:03;2.77;;;2.57;;
17636;SDS011;8937;51.236;6.794;2023-03-11T23:54:24;3.13;;;2.67;;
